Time;durP1;ratioP1;P1;durP2;ratioP2;P2;SDS_P1;SDS_P2;PMS_P1;PMS_P2;Temp;Humidity;BMP_temperature;BMP_pressure;BME280_temperature;BME280_humidity;BME280_pressure;Samples;Min_cycle;Max_cycle;Signal;HPM_P1;HPM_P2
2023/09/18 00:00:32;;;;;;;5.20;4.80;;;;;;;21.60;86.63;99917.91;5130430;27;20321;-76
2023/09/18 00:02:59;;;;;;;7.57;4.30;;;;;;;21.60;86.71;99909.91;5132232;27;20222;-76
2023/09/18 00:05:26;;;;;;;6.20;4.57;;;;;;;21.55;86.56;99906.78;5132754;28;20198;-76
2023/09/18 00:07:53;;;;;;;5.80;4.10;;;;;;;21.52;86.46;99914.94;5132538;27;20210;-76
2023/09/18 00:10:19;;;;;;;4.60;4.20;;;;;;;21.48;86.59;99916.13;5132539;27;20373;-76
2023/09/18 00:12:46;;;;;;;5.67;4.67;;;;;;;21.44;86.61;99904.88;5132342;28;20227;-76
2023/09/18 00:15:13;;;;;;;4.90;3.87;;;;;;;21.42;86.68;99893.50;5132276;27;20660;-76
2023/09/18 00:17:41;;;;;;;5.33;4.47;;;;;;;21.37;86.76;99885.03;5132314;27;20203;-76
2023/09/18 00:20:09;;;;;;;4.47;3.93;;;;;;;21.34;87.12;99856.03;5132259;27;20219;-76
2023/09/18 00:22:35;;;;;;;6.10;4.77;;;;;;;21.30;87.62;99851.91;5110457;22;20226;-77
2023/09/18 00:25:02;;;;;;;5.07;4.53;;;;;;;21.32;87.99;99840.22;5070109;28;20204;-79
2023/09/18 00:27:32;;;;;;;5.60;4.37;;;;;;;21.32;87.82;99844.69;5073364;28;20266;-80
2023/09/18 00:29:59;;;;;;;4.43;4.03;;;;;;;21.33;88.01;99831.31;5064483;28;20208;-78
2023/09/18 00:32:25;;;;;;;4.97;4.27;;;;;;;21.31;88.27;99819.13;5066670;28;20231;-79
2023/09/18 00:34:54;;;;;;;4.57;4.10;;;;;;;21.30;88.28;99818.25;5065574;28;20210;-80
2023/09/18 00:37:20;;;;;;;4.50;4.20;;;;;;;21.26;88.40;99811.47;5073504;28;20208;-79
2023/09/18 00:39:47;;;;;;;5.13;4.50;;;;;;;21.29;88.26;99805.94;5073624;28;20231;-80
2023/09/18 00:42:15;;;;;;;6.27;4.63;;;;;;;21.25;88.68;99808.91;5065464;28;20221;-80
2023/09/18 00:44:42;;;;;;;5.10;4.60;;;;;;;21.21;88.57;99798.53;5073613;28;20262;-79
2023/09/18 00:47:09;;;;;;;5.63;5.10;;;;;;;21.19;88.70;99796.97;5073567;28;20217;-80
2023/09/18 00:49:37;;;;;;;5.57;4.73;;;;;;;21.20;88.96;99783.56;5073856;28;20200;-79
2023/09/18 00:52:08;;;;;;;10.87;5.13;;;;;;;21.14;89.30;99777.88;5072936;28;20288;-79
2023/09/18 00:54:36;;;;;;;5.57;5.07;;;;;;;21.16;89.26;99770.66;5074662;28;20212;-81
2023/09/18 00:57:04;;;;;;;8.00;5.43;;;;;;;21.12;89.72;99756.75;5074710;28;20272;-81
2023/09/18 00:59:34;;;;;;;5.67;5.20;;;;;;;21.08;90.17;99755.28;5067044;28;20232;-81
2023/09/18 01:02:02;;;;;;;5.37;4.97;;;;;;;21.06;90.06;99733.31;5074297;28;20686;-81
2023/09/18 01:04:32;;;;;;;5.93;4.50;;;;;;;21.11;90.00;99731.19;5068308;28;20263;-81
2023/09/18 01:07:01;;;;;;;6.73;4.73;;;;;;;21.13;89.80;99736.34;5075907;28;20264;-80
2023/09/18 01:09:30;;;;;;;4.87;4.47;;;;;;;21.12;89.18;99739.97;5074188;28;20224;-80
2023/09/18 01:12:05;;;;;;;5.13;4.73;;;;;;;21.13;89.04;99741.66;5067703;28;20759;-79
2023/09/18 01:14:38;;;;;;;5.67;5.17;;;;;;;21.15;88.94;99743.25;5078849;28;20295;-81
2023/09/18 01:17:07;;;;;;;4.93;4.17;;;;;;;21.14;88.80;99746.88;5070271;28;20664;-79
2023/09/18 01:19:38;;;;;;;5.47;4.97;;;;;;;21.15;88.64;99739.75;5070468;28;20294;-81
2023/09/18 01:22:05;;;;;;;5.23;4.70;;;;;;;21.14;88.48;99740.72;5077263;28;20699;-79
2023/09/18 01:24:34;;;;;;;6.07;5.33;;;;;;;21.13;88.38;99731.91;5079068;28;20219;-81
2023/09/18 01:27:01;;;;;;;6.73;4.90;;;;;;;21.14;88.11;99741.56;5070859;28;20208;-80
2023/09/18 01:29:28;;;;;;;4.87;4.50;;;;;;;21.12;88.25;99742.63;5078199;28;20255;-79
2023/09/18 01:31:55;;;;;;;4.97;4.40;;;;;;;21.12;87.95;99742.63;5078673;28;20221;-81
2023/09/18 01:34:26;;;;;;;4.77;4.27;;;;;;;21.08;88.12;99743.81;5070527;28;20644;-80
2023/09/18 01:36:54;;;;;;;4.87;4.47;;;;;;;21.07;87.60;99756.25;5078575;28;20205;-81
2023/09/18 01:39:22;;;;;;;5.07;4.50;;;;;;;21.05;87.75;99757.31;5078785;28;20201;-80
2023/09/18 01:41:51;;;;;;;4.70;4.30;;;;;;;20.98;88.52;99738.34;5070128;28;20209;-81
2023/09/18 01:44:18;;;;;;;5.13;4.73;;;;;;;20.99;88.67;99734.72;5078117;28;20717;-80
2023/09/18 01:46:55;;;;;;;5.23;4.60;;;;;;;20.99;88.61;99724.09;5078527;28;20216;-81
2023/09/18 01:49:28;;;;;;;5.20;4.60;;;;;;;20.99;88.44;99730.28;5078437;28;20675;-81
2023/09/18 01:51:57;;;;;;;5.30;4.93;;;;;;;21.00;88.43;99726.66;5076834;28;20213;-81
2023/09/18 01:54:24;;;;;;;5.60;4.77;;;;;;;20.95;87.59;99734.13;5063268;28;20215;-81
2023/09/18 01:56:53;;;;;;;5.03;4.60;;;;;;;20.91;87.31;99742.41;5078528;28;20201;-81
2023/09/18 01:59:20;;;;;;;5.77;4.77;;;;;;;20.87;87.65;99736.50;5078279;28;20268;-80
2023/09/18 02:01:47;;;;;;;5.00;4.50;;;;;;;20.85;87.86;99729.59;5070898;28;20209;-81
2023/09/18 02:04:15;;;;;;;5.83;4.90;;;;;;;20.81;88.23;99727.19;5069031;28;20602;-80
2023/09/18 02:06:42;;;;;;;4.80;4.40;;;;;;;20.83;88.41;99719.09;5078478;28;20591;-79
2023/09/18 02:09:09;;;;;;;5.27;4.77;;;;;;;20.79;88.42;99709.66;5078163;28;20215;-79
2023/09/18 02:11:37;;;;;;;4.47;4.13;;;;;;;20.76;88.67;99712.56;5070231;28;20270;-81
2023/09/18 02:14:05;;;;;;;4.93;4.60;;;;;;;20.78;88.53;99705.31;5069773;28;20245;-81
2023/09/18 02:16:33;;;;;;;5.27;4.77;;;;;;;20.75;88.86;99700.22;5078529;28;20227;-81
2023/09/18 02:18:59;;;;;;;4.77;4.37;;;;;;;20.76;88.67;99692.16;5078225;28;20671;-81
2023/09/18 02:21:26;;;;;;;5.63;5.13;;;;;;;20.76;88.62;99691.34;5062071;28;20204;-80
2023/09/18 02:23:53;;;;;;;6.50;5.00;;;;;;;20.77;88.40;99690.34;5068344;28;20239;-80
2023/09/18 02:26:20;;;;;;;5.17;4.60;;;;;;;20.75;88.44;99690.50;5078171;28;20258;-81
2023/09/18 02:28:47;;;;;;;5.43;4.93;;;;;;;20.39;90.31;99673.59;5077950;28;20266;-80
2023/09/18 02:31:16;;;;;;;4.80;4.50;;;;;;;20.21;91.90;99638.66;5077599;28;20720;-81
2023/09/18 02:33:42;;;;;;;5.00;4.63;;;;;;;20.43;91.04;99630.03;5078083;28;20278;-81
2023/09/18 02:36:09;;;;;;;5.27;4.80;;;;;;;20.57;89.60;99650.22;5078613;28;20240;-81
2023/09/18 02:38:36;;;;;;;4.83;4.53;;;;;;;20.60;89.22;99659.78;5077821;28;20209;-81
2023/09/18 02:41:03;;;;;;;5.07;4.40;;;;;;;20.62;88.77;99668.47;5069725;28;20212;-80
2023/09/18 02:43:29;;;;;;;4.60;4.30;;;;;;;20.47;89.57;99670.38;5078302;28;20244;-81
2023/09/18 02:45:55;;;;;;;5.53;5.03;;;;;;;20.58;89.03;99657.22;5070362;28;20240;-80
2023/09/18 02:48:23;;;;;;;5.50;5.10;;;;;;;20.60;89.08;99657.97;5068695;28;20200;-81
2023/09/18 02:50:50;;;;;;;5.27;4.80;;;;;;;20.57;89.28;99655.53;5078719;28;20212;-81
2023/09/18 02:53:18;;;;;;;5.30;4.90;;;;;;;20.60;89.11;99652.66;5077313;28;20236;-81
2023/09/18 02:55:45;;;;;;;9.53;5.10;;;;;;;20.54;89.47;99649.59;5077819;28;20237;-81
2023/09/18 02:58:11;;;;;;;4.97;4.57;;;;;;;20.53;90.06;99632.81;5078028;28;20211;-80
2023/09/18 03:00:43;;;;;;;6.93;4.47;;;;;;;20.48;90.61;99619.06;5077901;28;20209;-81
2023/09/18 03:03:09;;;;;;;5.30;4.80;;;;;;;20.47;90.77;99613.88;5077618;28;20718;-81
2023/09/18 03:05:37;;;;;;;5.13;4.73;;;;;;;20.47;90.63;99609.41;5078134;28;20204;-81
2023/09/18 03:08:04;;;;;;;10.13;4.03;;;;;;;20.48;90.36;99611.13;5077909;28;20262;-80
2023/09/18 03:10:33;;;;;;;5.00;4.60;;;;;;;20.42;90.17;99606.28;5077621;28;20773;-81
2023/09/18 03:13:00;;;;;;;4.77;4.47;;;;;;;20.38;90.77;99596.84;5077688;28;20225;-80
2023/09/18 03:15:27;;;;;;;8.33;5.07;;;;;;;20.40;90.35;99592.28;5077918;28;20197;-80
2023/09/18 03:17:53;;;;;;;5.30;4.90;;;;;;;20.40;90.41;99598.44;5077728;28;20277;-81
2023/09/18 03:20:23;;;;;;;5.43;4.40;;;;;;;20.40;90.82;99597.59;5069984;28;20197;-80
2023/09/18 03:22:51;;;;;;;5.00;4.70;;;;;;;20.34;90.96;99590.09;5077576;28;20235;-80
2023/09/18 03:25:18;;;;;;;5.60;5.10;;;;;;;20.32;91.14;99584.88;5077872;28;20409;-81
2023/09/18 03:27:45;;;;;;;5.20;4.50;;;;;;;20.31;91.30;99572.59;5078575;28;20212;-81
2023/09/18 03:30:15;;;;;;;6.80;4.77;;;;;;;20.32;91.09;99574.28;5076419;28;20216;-80
2023/09/18 03:32:42;;;;;;;13.00;4.87;;;;;;;20.33;91.16;99570.66;5072190;28;20236;-81
2023/09/18 03:35:15;;;;;;;5.30;4.80;;;;;;;20.30;91.24;99565.59;5079208;28;20208;-80
2023/09/18 03:37:41;;;;;;;5.27;4.80;;;;;;;20.27;91.37;99555.22;5080078;28;20679;-81
2023/09/18 03:40:10;;;;;;;5.13;4.73;;;;;;;20.28;91.26;99551.63;5079337;28;20209;-81
2023/09/18 03:42:37;;;;;;;5.27;4.80;;;;;;;20.30;91.27;99548.88;5068788;28;20228;-80
2023/09/18 03:45:07;;;;;;;5.27;4.43;;;;;;;20.26;91.60;99536.78;5067741;28;20587;-78
2023/09/18 03:47:34;;;;;;;7.83;5.40;;;;;;;20.27;91.92;99531.38;5071805;28;20263;-80
2023/09/18 03:50:01;;;;;;;5.47;5.03;;;;;;;20.27;92.76;99511.97;5071700;28;20215;-78
2023/09/18 03:52:27;;;;;;;6.57;4.53;;;;;;;20.24;93.65;99487.38;5075265;28;20220;-80
2023/09/18 03:54:54;;;;;;;5.40;4.80;;;;;;;20.23;94.07;99482.19;5076229;28;20264;-79
2023/09/18 03:57:22;;;;;;;5.60;5.10;;;;;;;20.30;93.91;99472.84;5075958;28;20211;-79
2023/09/18 03:59:48;;;;;;;5.43;5.03;;;;;;;20.33;93.64;99472.59;5075939;28;20215;-80
2023/09/18 04:02:14;;;;;;;5.27;4.73;;;;;;;20.38;93.14;99482.88;5076008;28;20221;-80
2023/09/18 04:04:41;;;;;;;5.00;4.60;;;;;;;20.43;92.91;99486.00;5076158;28;20231;-79
2023/09/18 04:07:08;;;;;;;4.90;4.50;;;;;;;20.49;92.01;99495.31;5076553;28;20231;-78
2023/09/18 04:09:35;;;;;;;6.07;5.57;;;;;;;20.48;91.34;99496.28;5077153;28;20201;-80
2023/09/18 04:12:02;;;;;;;5.27;4.97;;;;;;;20.54;90.84;99501.13;5076130;28;20235;-80
2023/09/18 04:14:33;;;;;;;5.00;4.70;;;;;;;20.55;90.67;99514.25;5076657;28;20211;-80
2023/09/18 04:17:00;;;;;;;5.20;4.90;;;;;;;20.57;90.09;99511.47;5076258;28;20213;-79
2023/09/18 04:19:28;;;;;;;6.00;5.40;;;;;;;20.53;89.79;99518.81;5068156;28;20211;-79
2023/09/18 04:21:54;;;;;;;5.40;5.00;;;;;;;20.51;89.29;99534.00;5076057;28;20203;-80
2023/09/18 04:24:21;;;;;;;5.17;4.87;;;;;;;20.49;88.73;99533.25;5075105;28;20235;-80
2023/09/18 04:26:47;;;;;;;5.73;5.37;;;;;;;20.38;88.94;99526.13;5075716;28;20212;-79
2023/09/18 04:29:14;;;;;;;5.80;5.40;;;;;;;20.42;89.73;99500.22;5075201;28;20216;-79
2023/09/18 04:31:41;;;;;;;5.57;5.17;;;;;;;20.45;89.00;99505.28;5075117;28;20211;-80
2023/09/18 04:34:08;;;;;;;5.07;4.77;;;;;;;20.50;88.92;99507.63;5075046;28;20205;-79
2023/09/18 04:36:36;;;;;;;4.97;4.67;;;;;;;20.47;88.77;99513.13;5075579;28;20203;-80
2023/09/18 04:39:04;;;;;;;5.73;5.33;;;;;;;20.48;88.18;99509.53;5076082;28;20215;-80
2023/09/18 04:41:30;;;;;;;6.77;5.07;;;;;;;20.55;87.74;99510.75;5075785;28;20232;-80
2023/09/18 04:43:57;;;;;;;5.97;5.37;;;;;;;20.54;88.73;99491.34;5079402;28;20238;-80
2023/09/18 04:46:23;;;;;;;5.00;4.70;;;;;;;20.52;88.61;99481.84;5078220;28;20212;-80
2023/09/18 04:48:51;;;;;;;5.57;5.07;;;;;;;20.56;88.63;99483.28;5079015;28;20548;-81
2023/09/18 04:51:17;;;;;;;6.10;5.50;;;;;;;20.58;88.14;99479.56;5079604;28;20209;-79
2023/09/18 04:53:44;;;;;;;5.40;5.00;;;;;;;20.62;86.99;99490.81;5079140;28;20220;-78
2023/09/18 04:56:10;;;;;;;5.57;5.27;;;;;;;20.67;86.96;99493.94;5071374;28;20213;-81
2023/09/18 04:58:37;;;;;;;6.07;5.60;;;;;;;20.74;86.94;99494.34;5078921;28;20236;-80
2023/09/18 05:01:04;;;;;;;5.20;4.87;;;;;;;20.78;85.76;99506.41;5078617;28;20235;-80
2023/09/18 05:03:31;;;;;;;5.53;5.13;;;;;;;20.85;85.77;99517.38;5078889;28;20227;-78
2023/09/18 05:05:58;;;;;;;5.50;4.87;;;;;;;20.85;86.39;99509.41;5079248;28;20228;-79
2023/09/18 05:08:25;;;;;;;5.27;4.87;;;;;;;20.87;85.27;99518.97;5076155;28;20601;-83
2023/09/18 05:10:51;;;;;;;6.60;4.70;;;;;;;20.88;85.60;99509.19;5069926;28;20211;-83
2023/09/18 05:13:18;;;;;;;5.70;5.30;;;;;;;20.91;85.79;99503.63;5076289;28;20378;-85
2023/09/18 05:15:44;;;;;;;5.33;4.73;;;;;;;20.89;85.91;99494.94;5076463;28;20197;-82
2023/09/18 05:18:11;;;;;;;6.00;5.37;;;;;;;20.91;86.13;99490.38;5074619;28;20213;-82
2023/09/18 05:20:37;;;;;;;4.87;4.57;;;;;;;20.76;86.20;99495.06;5076355;28;20200;-84
2023/09/18 05:23:05;;;;;;;5.30;5.00;;;;;;;20.83;85.58;99518.34;5076180;28;20233;-82
2023/09/18 05:25:32;;;;;;;5.03;4.73;;;;;;;20.84;85.28;99553.66;5076321;28;20228;-84
2023/09/18 05:28:00;;;;;;;6.37;5.07;;;;;;;20.92;83.65;99556.59;5074822;28;20212;-81
2023/09/18 05:30:29;;;;;;;5.77;5.37;;;;;;;21.10;83.62;99562.28;5076682;28;20217;-83
2023/09/18 05:32:55;;;;;;;5.40;5.07;;;;;;;21.17;83.87;99574.13;5076234;28;20250;-85
2023/09/18 05:35:23;;;;;;;5.10;4.80;;;;;;;21.22;84.29;99561.31;5076785;28;20205;-83
2023/09/18 05:37:50;;;;;;;5.90;5.43;;;;;;;21.32;84.33;99550.84;5071165;28;20208;-83
2023/09/18 05:40:18;;;;;;;5.27;4.87;;;;;;;21.39;83.33;99568.00;5074055;28;20208;-86
2023/09/18 05:42:48;;;;;;;5.17;4.77;;;;;;;21.50;83.68;99563.69;5075885;28;20270;-86
2023/09/18 05:45:15;;;;;;;5.27;4.60;;;;;;;21.55;82.43;99570.31;5068100;28;20303;-84
2023/09/18 05:47:42;;;;;;;5.40;5.00;;;;;;;21.64;83.58;99554.63;5074621;28;20220;-82
2023/09/18 05:50:10;;;;;;;6.30;5.70;;;;;;;;;;5077179;28;20200;-82
2023/09/18 05:52:36;;;;;;;5.87;5.43;;;;;;;21.56;83.22;99553.41;5067654;28;20225;-83
2023/09/18 05:55:03;;;;;;;5.00;4.60;;;;;;;21.55;83.69;99542.94;5071330;28;20682;-83
2023/09/18 05:57:31;;;;;;;4.67;4.37;;;;;;;21.55;84.85;99509.25;5067941;28;20213;-84
2023/09/18 05:59:58;;;;;;;5.40;4.97;;;;;;;21.53;83.49;99529.78;5076576;28;20213;-84
2023/09/18 06:02:24;;;;;;;4.60;4.30;;;;;;;21.55;82.77;99553.56;5076714;28;20233;-83
2023/09/18 06:04:56;;;;;;;5.27;4.87;;;;;;;21.54;82.74;99557.16;5075864;28;20235;-83
2023/09/18 06:07:23;;;;;;;5.37;4.97;;;;;;;21.51;83.07;99544.16;5075920;28;20572;-83
2023/09/18 06:09:49;;;;;;;4.80;4.50;;;;;;;21.53;83.06;99539.56;5075616;28;20209;-83
2023/09/18 06:12:16;;;;;;;5.33;4.93;;;;;;;21.57;82.36;99535.69;5076806;28;20327;-83
2023/09/18 06:14:44;;;;;;;4.93;4.53;;;;;;;21.54;82.19;99520.81;5075801;28;20197;-83
2023/09/18 06:17:11;;;;;;;5.07;4.77;;;;;;;21.59;82.11;99510.69;5076797;28;20622;-85
2023/09/18 06:19:37;;;;;;;4.53;4.33;;;;;;;21.65;82.23;99503.22;5077349;28;20254;-85
2023/09/18 06:22:04;;;;;;;5.07;4.63;;;;;;;21.57;81.90;99493.19;5070051;28;20674;-84
2023/09/18 06:24:33;;;;;;;5.30;4.90;;;;;;;21.52;82.14;99490.88;5090666;22;20226;-81
2023/09/18 06:27:00;;;;;;;5.40;5.10;;;;;;;21.53;82.07;99499.72;5062287;28;20201;-81
2023/09/18 06:29:26;;;;;;;5.10;4.73;;;;;;;21.61;81.91;99502.59;5066832;28;20220;-80
2023/09/18 06:31:59;;;;;;;5.23;4.83;;;;;;;21.57;82.25;99474.59;5080020;28;20207;-79
2023/09/18 06:40:23;;;;;;;4.80;4.50;;;;;;;21.63;82.85;99482.06;5053170;28;20735;-81
2023/09/18 06:49:54;;;;;;;5.10;4.80;;;;;;;21.64;83.16;99462.50;4919229;28;20321;-80
2023/09/18 06:52:21;;;;;;;5.30;5.00;;;;;;;21.70;82.14;99485.06;5025184;28;20739;-79
2023/09/18 06:54:47;;;;;;;5.10;4.80;;;;;;;21.72;83.25;99467.19;5060817;28;20281;-79
2023/09/18 06:57:14;;;;;;;4.50;4.20;;;;;;;21.79;82.41;99468.41;5060052;28;20242;-79
2023/09/18 06:59:40;;;;;;;5.10;4.73;;;;;;;21.78;81.68;99469.34;5059864;28;20208;-79
2023/09/18 07:02:07;;;;;;;5.17;4.67;;;;;;;21.83;80.77;99514.16;5058090;28;20201;-78
2023/09/18 07:05:16;;;;;;;4.80;4.40;;;;;;;21.85;79.39;99549.44;5059257;28;20252;-80
2023/09/18 07:07:43;;;;;;;4.83;4.43;;;;;;;21.94;79.67;99551.31;5059805;28;20216;-81
2023/09/18 07:10:10;;;;;;;4.70;4.30;;;;;;;21.93;79.86;99558.47;5058035;28;20204;-79
2023/09/18 07:12:37;;;;;;;5.43;4.73;;;;;;;21.97;79.85;99549.25;5058544;28;20587;-79
2023/09/18 07:15:04;;;;;;;5.07;4.77;;;;;;;22.00;79.23;99572.09;5057658;28;20223;-78
2023/09/18 07:17:31;;;;;;;4.53;4.20;;;;;;;21.92;77.96;99593.97;5058466;28;20212;-79
2023/09/18 07:19:57;;;;;;;4.73;4.30;;;;;;;22.08;78.92;99584.75;5058094;28;20683;-80
2023/09/18 07:22:24;;;;;;;5.67;5.27;;;;;;;22.08;79.18;99579.44;5065298;28;20206;-81
2023/09/18 07:24:51;;;;;;;5.00;4.30;;;;;;;22.06;79.64;99587.56;5062022;28;20271;-82
2023/09/18 07:27:38;;;;;;;4.67;4.37;;;;;;;22.09;79.78;99575.84;5064822;28;20271;-83
2023/09/18 07:30:06;;;;;;;4.10;3.80;;;;;;;22.12;77.97;99583.53;5061435;28;20213;-83
2023/09/18 07:32:32;;;;;;;4.33;4.03;;;;;;;22.09;76.81;99615.69;5057927;28;20210;-83
2023/09/18 07:34:59;;;;;;;6.00;4.07;;;;;;;22.09;77.54;99607.72;5062284;28;20222;-82
2023/09/18 07:37:26;;;;;;;5.00;4.50;;;;;;;22.15;77.67;99612.53;5055701;28;20214;-82
2023/09/18 07:39:53;;;;;;;4.23;3.87;;;;;;;22.15;77.71;99613.38;5057525;28;20251;-82
2023/09/18 07:42:20;;;;;;;11.47;4.33;;;;;;;22.21;78.37;99612.03;5060498;28;20209;-82
2023/09/18 07:44:46;;;;;;;4.70;4.03;;;;;;;22.27;77.50;99616.06;5050989;28;20225;-81
2023/09/18 07:47:13;;;;;;;4.40;4.03;;;;;;;22.25;77.71;99625.97;5058526;28;20209;-82
2023/09/18 07:49:39;;;;;;;4.50;3.67;;;;;;;22.26;77.46;99635.63;5056616;28;20205;-81
2023/09/18 07:52:06;;;;;;;4.70;4.30;;;;;;;22.32;76.47;99665.25;5059734;28;20704;-82
2023/09/18 07:54:32;;;;;;;5.17;4.67;;;;;;;22.37;77.03;99652.41;5059657;28;20708;-82
2023/09/18 07:57:01;;;;;;;4.07;3.73;;;;;;;22.38;76.48;99651.44;5059835;28;20200;-82
2023/09/18 07:59:27;;;;;;;4.30;4.00;;;;;;;22.46;76.60;99645.50;5057627;28;20208;-82
2023/09/18 08:01:54;;;;;;;4.47;4.17;;;;;;;22.41;74.99;99671.63;5060694;28;20217;-82
2023/09/18 08:04:20;;;;;;;4.37;4.07;;;;;;;22.47;74.94;99676.44;5059080;28;20275;-82
2023/09/18 08:06:48;;;;;;;4.47;4.17;;;;;;;22.52;74.87;99686.72;5060541;28;20228;-82
2023/09/18 08:09:15;;;;;;;9.30;4.17;;;;;;;22.58;75.04;99697.72;5059449;28;20228;-82
2023/09/18 08:11:42;;;;;;;4.23;3.83;;;;;;;22.63;74.96;99696.50;5059056;28;20243;-82
2023/09/18 08:14:10;;;;;;;5.57;3.73;;;;;;;22.59;75.74;99710.03;5058238;28;20198;-83
2023/09/18 08:16:39;;;;;;;5.87;3.97;;;;;;;22.66;75.19;99683.78;5059095;28;20584;-82
2023/09/18 08:19:06;;;;;;;4.40;3.73;;;;;;;22.71;73.59;99726.81;5060905;28;20201;-82
2023/09/18 08:21:33;;;;;;;4.30;3.77;;;;;;;22.66;73.77;99739.66;5062080;28;20201;-81
2023/09/18 08:23:59;;;;;;;5.77;3.90;;;;;;;22.78;74.37;99749.31;5063471;28;20204;-82
2023/09/18 08:26:28;;;;;;;6.10;4.30;;;;;;;22.80;74.27;99734.06;5063142;28;20687;-82
2023/09/18 08:28:54;;;;;;;5.03;3.97;;;;;;;22.85;73.25;99751.47;5061960;28;20224;-82
2023/09/18 08:31:23;;;;;;;3.70;3.40;;;;;;;22.83;73.33;99754.25;5059461;28;20201;-83
2023/09/18 08:33:50;;;;;;;7.07;4.27;;;;;;;22.88;73.68;99757.38;5061812;28;20225;-82
2023/09/18 08:36:16;;;;;;;4.90;4.53;;;;;;;22.93;74.43;99725.06;5058758;28;20224;-81
2023/09/18 08:38:43;;;;;;;3.70;3.40;;;;;;;22.97;73.85;99739.81;5061344;28;20289;-83
2023/09/18 08:41:11;;;;;;;4.33;3.13;;;;;;;22.98;73.30;99730.88;5063259;28;20201;-86
2023/09/18 08:43:40;;;;;;;5.07;3.47;;;;;;;23.04;72.76;99769.47;5061317;28;20270;-83
2023/09/18 08:46:07;;;;;;;4.70;3.63;;;;;;;23.14;74.10;99754.44;5060711;28;20237;-85
2023/09/18 08:48:36;;;;;;;4.17;3.27;;;;;;;23.14;73.11;99738.47;5058997;28;20201;-83
2023/09/18 08:51:04;;;;;;;5.30;3.57;;;;;;;23.13;72.93;99758.94;5070150;28;20208;-84
2023/09/18 08:53:32;;;;;;;5.33;3.70;;;;;;;23.15;73.46;99745.47;5065606;28;20209;-85
2023/09/18 08:56:01;;;;;;;6.50;3.80;;;;;;;23.22;72.20;99769.78;5062134;28;20226;-84
2023/09/18 08:58:28;;;;;;;4.23;2.97;;;;;;;23.17;70.97;99791.44;5060510;28;20209;-83
2023/09/18 09:00:55;;;;;;;4.23;3.50;;;;;;;23.28;71.79;99796.75;5067999;28;20227;-83
2023/09/18 09:03:22;;;;;;;7.97;3.40;;;;;;;23.40;72.18;99778.91;5065168;28;20231;-82
2023/09/18 09:05:50;;;;;;;4.70;3.33;;;;;;;23.40;71.45;99769.09;5067400;28;20267;-82
2023/09/18 09:08:16;;;;;;;5.30;3.50;;;;;;;23.50;71.59;99786.97;5067490;28;20208;-83
2023/09/18 09:10:43;;;;;;;5.80;3.00;;;;;;;23.51;71.63;99788.69;5066941;28;20210;-82
2023/09/18 09:13:10;;;;;;;3.77;2.90;;;;;;;23.38;70.23;99797.66;5061087;28;20237;-81
2023/09/18 09:15:46;;;;;;;5.97;3.20;;;;;;;23.38;70.72;99805.66;5060780;28;20231;-79
2023/09/18 09:18:13;;;;;;;4.20;3.13;;;;;;;23.46;71.34;99802.34;5058001;28;20208;-78
2023/09/18 09:20:40;;;;;;;6.93;3.00;;;;;;;23.33;71.04;99802.53;5058961;28;20225;-79
2023/09/18 09:23:10;;;;;;;5.40;2.80;;;;;;;23.37;70.96;99824.44;5060208;28;20208;-79
2023/09/18 09:25:37;;;;;;;4.63;3.17;;;;;;;23.48;70.27;99832.38;5054898;28;20275;-78
2023/09/18 09:28:05;;;;;;;3.93;2.97;;;;;;;23.58;71.67;99814.66;5055165;28;20230;-76
2023/09/18 09:30:33;;;;;;;6.77;4.13;;;;;;;23.49;72.32;99828.75;5053574;28;20309;-76
2023/09/18 09:33:02;;;;;;;5.20;2.80;;;;;;;23.27;71.54;99813.72;5054031;28;20254;-77
2023/09/18 09:35:29;;;;;;;4.37;2.90;;;;;;;23.42;71.82;99806.25;5053925;28;20225;-77
2023/09/18 09:37:58;;;;;;;3.67;3.07;;;;;;;23.25;70.78;99812.13;5053764;28;20729;-78
2023/09/18 09:40:27;;;;;;;5.10;3.13;;;;;;;23.31;70.91;99804.50;5054667;28;20205;-78
2023/09/18 09:43:00;;;;;;;5.67;2.87;;;;;;;23.29;70.89;99813.56;5054268;28;20228;-78
2023/09/18 09:45:27;;;;;;;3.87;2.63;;;;;;;23.40;71.74;99798.38;5054741;28;20225;-79
2023/09/18 09:47:54;;;;;;;4.90;2.73;;;;;;;23.19;71.01;99801.03;5053906;28;20206;-77
2023/09/18 09:50:21;;;;;;;6.63;2.80;;;;;;;23.22;70.82;99807.91;5053246;28;20237;-77
2023/09/18 09:52:49;;;;;;;5.13;2.40;;;;;;;23.15;69.71;99833.31;5053129;28;20216;-78
2023/09/18 09:55:20;;;;;;;5.73;2.37;;;;;;;23.27;70.52;99824.34;5052119;28;20271;-78
2023/09/18 09:57:53;;;;;;;4.43;2.33;;;;;;;23.38;71.37;99812.81;5052738;28;20313;-78
2023/09/18 10:00:26;;;;;;;9.47;2.87;;;;;;;23.49;71.53;99794.13;5052670;28;20866;-74
2023/09/18 10:02:57;;;;;;;4.70;2.40;;;;;;;23.50;71.63;99785.16;5051179;28;20216;-77
2023/09/18 10:05:27;;;;;;;22.03;3.40;;;;;;;23.50;69.56;99816.28;5052619;28;20320;-78
2023/09/18 10:07:55;;;;;;;3.70;2.67;;;;;;;23.54;70.19;99820.38;5052732;28;20671;-77
2023/09/18 10:10:22;;;;;;;5.17;2.37;;;;;;;23.50;69.77;99845.59;5053125;28;20605;-77
2023/09/18 10:12:49;;;;;;;3.70;2.63;;;;;;;23.41;69.06;99855.19;5052898;28;20713;-78
2023/09/18 10:15:19;;;;;;;5.40;2.40;;;;;;;23.54;69.80;99847.03;5054596;28;20256;-78
2023/09/18 10:17:48;;;;;;;4.40;3.00;;;;;;;23.47;69.29;99857.34;5052973;28;20672;-77
2023/09/18 10:20:20;;;;;;;5.83;2.43;;;;;;;23.49;69.48;99841.22;5052562;28;20232;-78
2023/09/18 10:22:49;;;;;;;5.70;2.50;;;;;;;23.63;70.03;99829.41;5053098;28;20205;-77
2023/09/18 10:25:22;;;;;;;5.27;2.17;;;;;;;23.56;68.97;99843.25;5052503;28;20629;-77
2023/09/18 10:27:51;;;;;;;4.93;2.57;;;;;;;23.53;69.53;99840.84;5052702;28;20226;-75
2023/09/18 10:30:22;;;;;;;6.87;2.70;;;;;;;23.63;69.58;99840.06;5054004;28;20213;-78
2023/09/18 10:32:50;;;;;;;4.47;2.60;;;;;;;23.54;70.86;99839.88;5052367;28;20213;-78
2023/09/18 10:35:17;;;;;;;4.00;2.47;;;;;;;23.62;70.18;99812.59;5052744;28;20228;-76
2023/09/18 10:37:44;;;;;;;4.00;2.00;;;;;;;23.69;69.52;99845.75;5052607;28;20209;-77
2023/09/18 10:40:11;;;;;;;6.53;2.47;;;;;;;23.68;68.57;99862.69;5051824;28;20229;-74
2023/09/18 10:42:39;;;;;;;3.57;2.20;;;;;;;23.73;69.12;99859.66;5052326;28;20623;-77
2023/09/18 10:45:10;;;;;;;3.77;2.33;;;;;;;23.69;69.03;99859.06;5051651;28;20774;-76
2023/09/18 10:47:40;;;;;;;4.77;2.57;;;;;;;23.46;68.59;99857.47;5052152;28;20363;-77
2023/09/18 10:50:07;;;;;;;2.63;1.80;;;;;;;23.45;69.52;99867.28;5060670;28;20300;-77
2023/09/18 10:52:35;;;;;;;4.93;2.80;;;;;;;23.64;69.70;99842.63;5051131;28;20828;-77
2023/09/18 10:55:03;;;;;;;5.57;2.97;;;;;;;23.54;70.81;99855.00;5052897;28;20229;-77
2023/09/18 10:57:34;;;;;;;3.80;2.23;;;;;;;23.60;69.76;99860.66;5053210;28;20198;-76
2023/09/18 11:00:00;;;;;;;4.87;2.13;;;;;;;23.60;69.18;99881.16;5054458;28;20210;-77
2023/09/18 11:02:28;;;;;;;4.57;2.70;;;;;;;23.66;69.77;99861.97;5054286;28;20713;-77
2023/09/18 11:04:56;;;;;;;2.20;1.93;;;;;;;23.53;69.03;99907.47;5053804;28;20225;-77
2023/09/18 11:07:24;;;;;;;3.63;2.43;;;;;;;23.59;71.09;99885.63;5052438;28;20222;-78
2023/09/18 11:09:51;;;;;;;4.70;2.00;;;;;;;23.67;69.56;99897.50;5052086;28;20210;-78
2023/09/18 11:12:18;;;;;;;6.00;2.60;;;;;;;23.79;70.10;99891.19;5052149;28;20202;-78
2023/09/18 11:14:49;;;;;;;3.90;2.53;;;;;;;23.89;70.98;99875.25;5052090;28;20229;-77
2023/09/18 11:17:33;;;;;;;6.93;2.83;;;;;;;23.92;70.35;99878.50;5061216;28;20229;-78
2023/09/18 11:20:11;;;;;;;2.60;2.30;;;;;;;23.87;70.35;99854.06;5063199;28;20215;-78
2023/09/18 11:22:38;;;;;;;7.77;2.30;;;;;;;23.86;69.51;99879.00;5052384;28;20197;-78
2023/09/18 11:25:31;;;;;;;4.37;2.50;;;;;;;23.94;67.99;99905.03;5052199;28;20229;-78
2023/09/18 11:27:58;;;;;;;4.67;2.30;;;;;;;24.01;67.46;99906.22;5052126;28;20570;-78
2023/09/18 11:30:25;;;;;;;4.77;2.10;;;;;;;24.08;67.40;99934.06;5053389;28;20208;-78
2023/09/18 11:32:52;;;;;;;5.03;2.30;;;;;;;24.25;67.58;99940.63;5055739;28;20208;-78
2023/09/18 11:35:20;;;;;;;3.93;2.17;;;;;;;24.32;67.37;99925.81;5054002;28;20726;-78
2023/09/18 11:37:46;;;;;;;3.20;2.27;;;;;;;24.33;66.83;99926.66;5054785;28;20205;-77
2023/09/18 11:40:33;;;;;;;6.63;2.27;;;;;;;24.10;66.81;99961.47;5055223;28;20209;-79
2023/09/18 11:43:29;;;;;;;6.77;2.57;;;;;;;24.05;67.23;99944.97;5056678;28;20259;-79
2023/09/18 11:45:57;;;;;;;4.13;2.00;;;;;;;24.09;67.94;99933.09;5018527;28;20233;-79
2023/09/18 11:48:27;;;;;;;2.40;2.07;;;;;;;24.08;68.62;99920.75;5053011;28;20823;-79
2023/09/18 11:50:57;;;;;;;5.63;2.13;;;;;;;23.93;68.00;99904.19;5053846;28;20212;-80